Paro, Bhutan
Current Conditions -  °F | °C
As of 6:50 PM on Friday 28 Nov 2014 (Local Time) from VNKT Reporting Station
Scattered Clouds Scattered Clouds  
Wind Chill: 57°   Ceiling: Unl
Heat Index: 57°   Visibility: 4mi
Dew Point: 48°   Wind: 3mph
Humidity: 72%   Direction: 240°WSW
Pressure: 30"   Gusts: NA
Location:  27.51°N, 89.36°E
Report Text: VNKT 281250Z 24003KT 6000 FEW020 SCT030 14/09 Q1016 NOSIG
Loading
Personal Weather Stations






























Interactive Weather Map New forecast layout! Learn more

10-Day Weather Forecast

Advertisements
Track Severe Weather on mobile